Air Resources Laboratory banner image
Air Resources Laboratory web site National Oceanic and Atmospheric Administration (NOAA)

or metar


KAST 172355Z AUTO 24007KT 10SM BKN010 OVC018 17/14 A3012 RMK AO2 SLP200
 T01720144 10189 20161 57002=
KBKE 172353Z AUTO 36005KT 10SM CLR 37/06 A3002 RMK AO2 SLP136 T03670056 10372
 20317 56013 $=
KBNO 172353Z AUTO 20004KT 10SM CLR 34/02 A3009 RMK AO2 SLP151 T03390022 10350
 20272 56017 $=
KCVO 172356Z AUTO 31017G20KT 10SM CLR 29/13 A3003 RMK AO2 SLP167 T02890133
 10289 20217 56008=
KDLS 172353Z AUTO 30020G26KT 10SM CLR 36/06 A2988 RMK AO2 PK WND 31034/2257
 SLP115 T03610061 10372 20317 56009=
KEUG 172354Z 24007KT 10SM CLR 32/11 A3001 RMK AO2 SLP160 T03220111 10333 20228
 56011=
KHIO 172353Z 36006KT 10SM CLR 32/15 A2999 RMK AO2 SLP151 T03220150 10333 20244
 58014=
KHRI 172353Z AUTO 28019G24KT 10SM CLR 40/M01 A2983 RMK AO2 PK WND 28029/2337
 SLP094 T04001011 10406 20350 58017=
KLGD 172356Z AUTO 27012G23KT 10SM CLR 37/M01 A2998 RMK AO2 SLP284 T03721011
 10372 20267 56016=
KLKV 172353Z AUTO VRB03KT 10SM CLR 33/04 A3016 RMK AO2 SLP676 T03330044 10339
 20289 56012=
KLMT 172353Z 32010G18KT 10SM CLR 34/06 A3012 RMK AO2 SLP150 T03440056 10344
 20278 56009=
KMEH 172356Z AUTO 00000KT 10SM CLR 32/04 A3007 RMK AO2 SLP155 T03220039 10333
 20289 56010=
KMFR 172353Z 29011G18KT 10SM FEW018 39/M02 A2993 RMK AO2 SLP120 T03891017 10400
 20294 56014=
KMMV 172353Z AUTO 22010KT 10SM CLR 31/08 A2999 RMK AO2 SLP155 T03110078 10317
 20228 57013=
KONO 172353Z AUTO 11004KT 10SM CLR 36/13 A2995 RMK AO2 SLP124 T03560128 10372
 20267 56022 $=
KONP 172355Z AUTO 30005KT 7SM OVC013 16/13 A3016 RMK AO2=
KOTH 172356Z 35015G20KT 10SM CLR 19/13 A3014 RMK AO2 SLP206 T01890128 10194
 20156 56000=
KPDT 172353Z 29013G16KT 10SM CLR 38/00 A2991 RMK AO2 SLP106 T03780000 10383
 20339 56010=
KPDX 172353Z 35007KT 310V010 10SM CLR 32/14 A2999 RMK AO2 SLP153 T03220139
 10328 20239 58014=
KRBG 172353Z AUTO 33008G17KT 10SM CLR 34/10 A3000 RMK AO2 SLP153 T03390100
 10350 20250 56007=
KRDM 172356Z 32018G24KT 10SM CLR 36/00 A3003 RMK AO2 PK WND 32028/2336 SLP137
 T03610000 10378 20311 57008=
KSLE 172356Z 29007KT 10SM CLR 32/11 A3000 RMK AO2 SLP156 T03170106 10328 20244
 56010=
KSPB 172353Z AUTO 04009KT 010V070 10SM CLR 31/15 A2999 RMK AO2 SLP153 T03110150
 10317 20228 56014=
KSXT 172356Z AUTO 10SM CLR 31/11 A3017 RMK AO2 SLP148 T03060106 10317 20244
 58007=
KTTD 172353Z VRB04KT 10SM CLR 33/11 A2998 RMK AO2 SLP151 T03280106 10333 20239
 58015=
KUAO 172353Z VRB06KT 10SM CLR 32/12 A3000 RMK AO2 SLP157 T03220117 10328 20233
 57014=